createdAt,value
2019-04-06T00:01:14.958Z,51.51
2019-04-06T00:03:45.591Z,51.67
2019-04-06T00:06:16.307Z,51.80
2019-04-06T00:08:47.046Z,51.67
2019-04-06T00:11:17.698Z,51.69
2019-04-06T00:13:48.313Z,51.87
2019-04-06T00:16:18.971Z,52.18
2019-04-06T00:18:49.696Z,52.25
2019-04-06T00:21:20.331Z,52.52
2019-04-06T00:23:50.982Z,53.01
2019-04-06T00:26:21.656Z,53.32
2019-04-06T00:28:52.342Z,53.44
2019-04-06T00:31:28.691Z,53.23
2019-04-06T00:33:59.412Z,53.53
2019-04-06T00:36:30.106Z,53.42
2019-04-06T00:39:00.981Z,53.60
2019-04-06T00:41:31.761Z,53.85
2019-04-06T00:44:02.499Z,53.94
2019-04-06T00:46:33.101Z,54.41
2019-04-06T00:49:03.903Z,54.43
2019-04-06T00:51:34.442Z,54.48
2019-04-06T00:54:05.190Z,54.44
2019-04-06T00:56:35.851Z,54.26
2019-04-06T00:59:06.554Z,54.25
2019-04-06T01:01:37.311Z,54.48
2019-04-06T01:04:07.936Z,54.51
2019-04-06T01:06:38.635Z,54.44
2019-04-06T01:09:11.542Z,55.13
2019-04-06T01:11:42.305Z,54.83
2019-04-06T01:14:13.021Z,54.46
2019-04-06T01:16:43.671Z,54.75
2019-04-06T01:19:14.366Z,54.20
2019-04-06T01:21:44.967Z,54.21
2019-04-06T01:24:15.598Z,54.32
2019-04-06T01:26:46.218Z,54.55
2019-04-06T01:29:16.912Z,54.70
2019-04-06T01:31:47.621Z,54.26
2019-04-06T01:34:18.266Z,54.38
2019-04-06T01:36:48.841Z,54.37
2019-04-06T01:39:19.391Z,54.88
2019-04-06T01:41:49.943Z,54.78
2019-04-06T01:44:20.441Z,55.17
2019-04-06T01:46:51.016Z,54.71
2019-04-06T01:49:21.611Z,55.01
2019-04-06T01:51:52.523Z,55.75
2019-04-06T01:54:22.906Z,55.61
2019-04-06T01:56:53.534Z,55.99
2019-04-06T01:59:23.953Z,56.00
2019-04-06T02:02:13.305Z,55.97
2019-04-06T02:04:43.953Z,55.99
2019-04-06T02:07:14.613Z,56.11
2019-04-06T02:09:45.101Z,56.12
2019-04-06T02:12:15.816Z,56.53
2019-04-06T02:14:46.492Z,56.41
2019-04-06T02:17:16.987Z,56.46
2019-04-06T02:19:47.932Z,56.54
2019-04-06T02:22:18.481Z,56.79
2019-04-06T02:24:48.981Z,56.82
2019-04-06T02:27:19.664Z,56.43
2019-04-06T02:30:09.037Z,56.95
2019-04-06T02:32:52.366Z,56.71
2019-04-06T02:35:41.677Z,57.29
2019-04-06T02:38:23.623Z,57.43
2019-04-06T02:41:01.933Z,57.04
2019-04-06T02:43:34.313Z,57.57
2019-04-06T02:46:05.066Z,57.57
2019-04-06T02:48:35.779Z,57.58
2019-04-06T02:51:06.488Z,57.72
2019-04-06T02:53:36.968Z,57.62
2019-04-06T02:56:07.649Z,57.96
2019-04-06T02:58:38.242Z,58.00
2019-04-06T03:01:08.800Z,57.94
2019-04-06T03:03:39.485Z,57.87
2019-04-06T03:06:10.395Z,57.87
2019-04-06T03:08:41.080Z,57.75
2019-04-06T03:11:11.670Z,57.80
2019-04-06T03:13:42.710Z,57.77
2019-04-06T03:16:13.328Z,58.07
2019-04-06T03:18:43.943Z,58.09
2019-04-06T03:21:14.515Z,58.04
2019-04-06T03:23:51.085Z,58.09
2019-04-06T03:26:17.414Z,58.43
2019-04-06T03:28:48.140Z,58.38
2019-04-06T03:31:23.325Z,58.59
2019-04-06T03:33:51.003Z,58.36
2019-04-06T03:36:21.776Z,58.51
2019-04-06T03:38:52.312Z,58.41
2019-04-06T03:41:23.085Z,59.25
2019-04-06T03:43:53.627Z,60.83
2019-04-06T03:46:24.371Z,60.90
2019-04-06T03:48:54.937Z,61.41
2019-04-06T03:51:25.431Z,62.80
2019-04-06T03:53:55.969Z,63.34
2019-04-06T03:56:26.727Z,62.94
2019-04-06T03:58:57.995Z,62.43
2019-04-06T04:01:28.734Z,62.41
2019-04-06T04:03:59.398Z,62.30
2019-04-06T04:06:29.919Z,61.50
2019-04-06T04:09:00.737Z,61.95
2019-04-06T04:11:31.282Z,61.77
2019-04-06T04:14:02.169Z,61.77
2019-04-06T04:16:32.716Z,61.40
2019-04-06T04:19:03.513Z,61.43
2019-04-06T04:21:34.246Z,61.33
2019-04-06T04:24:05.052Z,60.87
2019-04-06T04:26:35.628Z,60.96
2019-04-06T04:29:06.939Z,60.57
2019-04-06T04:31:37.780Z,61.10
2019-04-06T04:34:08.595Z,60.40
2019-04-06T04:36:39.414Z,60.52
2019-04-06T04:39:10.927Z,60.94
2019-04-06T04:41:41.726Z,61.01
2019-04-06T04:44:12.888Z,61.09
2019-04-06T04:46:43.879Z,61.23
2019-04-06T04:49:22.536Z,61.26
2019-04-06T04:51:58.901Z,61.92
2019-04-06T04:54:29.681Z,61.98
2019-04-06T04:57:00.560Z,61.58
2019-04-06T04:59:31.400Z,61.58
2019-04-06T05:02:02.267Z,61.60
2019-04-06T05:04:32.900Z,61.14
2019-04-06T05:07:15.635Z,61.18
2019-04-06T05:09:46.526Z,60.33
2019-04-06T05:12:17.324Z,59.48
2019-04-06T05:15:12.022Z,58.25
2019-04-06T05:17:42.739Z,56.66
2019-04-06T05:20:14.550Z,54.10
2019-04-06T05:22:45.390Z,52.20
2019-04-06T05:25:15.971Z,52.35
2019-04-06T05:27:52.726Z,51.11
2019-04-06T05:30:19.131Z,49.88
2019-04-06T05:32:49.873Z,48.96
2019-04-06T05:35:20.644Z,48.80
2019-04-06T05:37:51.476Z,48.94
2019-04-06T05:40:22.086Z,49.38
2019-04-06T05:42:52.826Z,48.72
2019-04-06T05:45:23.489Z,49.90
2019-04-06T05:47:54.052Z,50.18
2019-04-06T05:50:24.684Z,50.61
2019-04-06T05:52:55.222Z,49.30
2019-04-06T05:55:25.872Z,47.38
2019-04-06T05:58:03.459Z,46.10
2019-04-06T06:00:29.202Z,45.09
2019-04-06T06:03:00.347Z,43.78
2019-04-06T06:05:31.927Z,42.80
2019-04-06T06:08:02.557Z,41.79
2019-04-06T06:10:33.286Z,41.03
2019-04-06T06:13:04.271Z,41.03
2019-04-06T06:15:35.010Z,42.26
2019-04-06T06:18:06.794Z,42.15
2019-04-06T06:20:37.471Z,42.29
2019-04-06T06:23:08.156Z,43.07
2019-04-06T06:25:38.774Z,43.23
2019-04-06T06:28:15.073Z,42.26
2019-04-06T06:30:42.023Z,43.55
2019-04-06T06:33:13.042Z,42.92
2019-04-06T06:35:43.768Z,42.39
2019-04-06T06:38:14.494Z,42.47
2019-04-06T06:40:45.240Z,41.31
2019-04-06T06:43:15.964Z,39.99
2019-04-06T06:45:46.813Z,41.50
2019-04-06T06:48:17.609Z,41.75
2019-04-06T06:50:48.511Z,41.86
2019-04-06T06:53:19.681Z,41.12
2019-04-06T06:55:50.380Z,41.67
2019-04-06T06:58:25.749Z,40.65
2019-04-06T07:00:53.499Z,41.23
2019-04-06T07:03:24.241Z,39.40
2019-04-06T07:05:56.587Z,39.28
2019-04-06T07:08:27.094Z,37.39
2019-04-06T07:10:57.791Z,37.87
2019-04-06T07:13:28.644Z,36.94
2019-04-06T07:15:59.896Z,36.19
2019-04-06T07:18:30.795Z,36.38
2019-04-06T07:21:01.626Z,38.07
2019-04-06T07:23:32.418Z,37.46
2019-04-06T07:26:03.175Z,36.43
2019-04-06T07:28:38.153Z,38.39
2019-04-06T07:31:06.420Z,37.42
2019-04-06T07:33:37.510Z,37.19
2019-04-06T07:36:08.203Z,35.40
2019-04-06T07:38:38.807Z,34.30
2019-04-06T07:41:09.442Z,34.48
2019-04-06T07:43:40.214Z,34.80
2019-04-06T07:46:11.000Z,35.35
2019-04-06T07:48:41.590Z,34.78
2019-04-06T07:51:12.319Z,35.06
2019-04-06T07:53:42.976Z,34.81
2019-04-06T07:56:13.750Z,32.71
2019-04-06T07:58:49.384Z,33.28
2019-04-06T08:01:16.953Z,32.06
2019-04-06T08:03:48.028Z,34.18
2019-04-06T08:06:18.759Z,34.49
2019-04-06T08:08:49.450Z,32.22
2019-04-06T08:11:20.177Z,34.44
2019-04-06T08:13:50.791Z,33.04
2019-04-06T08:16:21.301Z,31.36
2019-04-06T08:18:51.987Z,30.72
2019-04-06T08:21:22.601Z,31.26
2019-04-06T08:23:53.216Z,31.67
2019-04-06T08:26:23.943Z,31.82
2019-04-06T08:29:01.507Z,30.50
2019-04-06T08:31:27.066Z,31.29
2019-04-06T08:33:57.850Z,30.79
2019-04-06T08:36:28.719Z,30.41
2019-04-06T08:38:59.870Z,30.99
2019-04-06T08:41:30.730Z,30.91
2019-04-06T08:44:01.636Z,31.72
2019-04-06T08:46:32.552Z,32.31
2019-04-06T08:49:03.372Z,32.08
2019-04-06T08:51:34.056Z,31.12
2019-04-06T08:54:04.840Z,32.17
2019-04-06T08:56:35.417Z,30.24
2019-04-06T08:59:12.004Z,30.27
2019-04-06T09:01:38.608Z,30.99
2019-04-06T09:04:09.306Z,30.70
2019-04-06T09:06:40.270Z,30.71
2019-04-06T09:09:11.082Z,29.82
2019-04-06T09:11:42.383Z,30.16
2019-04-06T09:14:13.226Z,30.75
2019-04-06T09:16:44.341Z,29.60
2019-04-06T09:19:15.147Z,28.71
2019-04-06T09:21:45.919Z,28.25
2019-04-06T09:24:16.687Z,28.24
2019-04-06T09:26:48.455Z,28.79
2019-04-06T09:29:23.619Z,29.34
2019-04-06T09:31:51.907Z,29.56
2019-04-06T09:34:22.489Z,29.76
2019-04-06T09:36:53.166Z,29.80
2019-04-06T09:39:23.833Z,28.46
2019-04-06T09:41:54.692Z,28.45
2019-04-06T09:44:44.591Z,28.09
2019-04-06T09:47:28.031Z,27.89
2019-04-06T09:50:16.766Z,28.89
2019-04-06T09:53:01.756Z,28.82
2019-04-06T09:55:48.446Z,29.35
2019-04-06T09:58:37.995Z,30.24
2019-04-06T10:01:20.881Z,29.86
2019-04-06T10:04:02.599Z,31.63
2019-04-06T10:06:52.175Z,32.50
2019-04-06T10:09:41.693Z,28.15
2019-04-06T10:12:31.092Z,27.14
2019-04-06T10:15:20.625Z,26.92
2019-04-06T10:18:10.341Z,27.05
2019-04-06T10:21:00.271Z,28.37
2019-04-06T10:23:49.604Z,26.92
2019-04-06T10:26:36.841Z,27.04
2019-04-06T10:29:26.436Z,29.00
2019-04-06T10:32:16.042Z,29.94
2019-04-06T10:35:01.720Z,28.15
2019-04-06T10:37:51.230Z,27.14
2019-04-06T10:40:40.796Z,26.11
2019-04-06T10:43:30.394Z,25.52
2019-04-06T10:46:19.981Z,24.18
2019-04-06T10:48:56.725Z,28.30
2019-04-06T10:51:46.231Z,30.90
2019-04-06T10:54:35.750Z,30.86
2019-04-06T10:57:15.466Z,29.20
2019-04-06T11:00:01.508Z,32.26
2019-04-06T11:02:48.331Z,31.41
2019-04-06T11:05:31.630Z,33.92
2019-04-06T11:08:21.179Z,34.28
2019-04-06T11:11:10.690Z,32.06
2019-04-06T11:14:00.227Z,32.67
2019-04-06T11:16:49.786Z,33.09
2019-04-06T11:19:39.261Z,32.87
2019-04-06T11:22:27.542Z,35.42
2019-04-06T11:25:17.347Z,36.12
2019-04-06T11:28:06.932Z,33.57
2019-04-06T11:30:47.958Z,33.80
2019-04-06T11:33:37.620Z,36.48
2019-04-06T11:36:27.450Z,34.77
2019-04-06T11:39:17.032Z,33.48
2019-04-06T11:41:55.825Z,31.88
2019-04-06T11:44:37.213Z,32.65
2019-04-06T11:47:26.833Z,32.44
2019-04-06T11:50:16.627Z,34.19
2019-04-06T11:53:03.330Z,33.68
2019-04-06T11:55:40.087Z,33.60
2019-04-06T11:58:29.768Z,34.83
2019-04-06T12:01:19.746Z,35.02
2019-04-06T12:04:09.251Z,34.74
2019-04-06T12:06:50.623Z,35.87
2019-04-06T12:09:40.050Z,37.53
2019-04-06T12:12:31.104Z,35.10
2019-04-06T12:15:12.512Z,38.62
2019-04-06T12:17:51.640Z,36.75
2019-04-06T12:20:31.056Z,37.65
2019-04-06T12:23:20.849Z,37.35
2019-04-06T12:26:10.549Z,37.21
2019-04-06T12:29:00.475Z,38.49
2019-04-06T12:31:41.864Z,36.94
2019-04-06T12:34:31.470Z,37.70
2019-04-06T12:37:20.890Z,38.27
2019-04-06T12:40:10.332Z,36.99
2019-04-06T12:42:59.830Z,37.23
2019-04-06T12:45:49.340Z,38.28
2019-04-06T12:48:39.282Z,38.08
2019-04-06T12:51:19.836Z,37.35
2019-04-06T12:54:09.305Z,37.05
2019-04-06T12:56:53.016Z,40.18
2019-04-06T12:59:35.237Z,37.20
2019-04-06T13:02:14.510Z,37.84
2019-04-06T13:05:04.105Z,38.15
2019-04-06T13:07:53.691Z,38.30
2019-04-06T13:10:43.082Z,39.80
2019-04-06T13:13:23.897Z,37.88
2019-04-06T13:16:13.311Z,37.46
2019-04-06T13:19:02.710Z,38.37
2019-04-06T13:21:52.233Z,38.08
2019-04-06T13:24:41.750Z,39.20
2019-04-06T13:27:31.034Z,37.63
2019-04-06T13:30:20.784Z,37.61
2019-04-06T13:33:02.734Z,38.52
2019-04-06T13:35:52.256Z,37.40
2019-04-06T13:38:41.601Z,37.39
2019-04-06T13:41:31.461Z,38.70
2019-04-06T13:44:21.069Z,39.30
2019-04-06T13:47:04.180Z,40.82
2019-04-06T13:49:45.640Z,40.13
2019-04-06T13:52:22.281Z,40.41
2019-04-06T13:55:03.259Z,42.55
2019-04-06T13:57:38.986Z,42.09
2019-04-06T14:00:18.002Z,41.39
2019-04-06T14:02:56.796Z,40.74
2019-04-06T14:05:39.595Z,40.37
2019-04-06T14:08:29.106Z,40.24
2019-04-06T14:11:19.233Z,40.52
2019-04-06T14:14:04.231Z,41.42
2019-04-06T14:16:46.700Z,40.39
2019-04-06T14:19:33.641Z,40.68
2019-04-06T14:22:23.330Z,42.24
2019-04-06T14:25:12.861Z,41.32
2019-04-06T14:28:02.457Z,42.85
2019-04-06T14:30:51.998Z,43.75
2019-04-06T14:33:33.048Z,43.33
2019-04-06T14:36:22.446Z,42.93
2019-04-06T14:39:07.966Z,44.38
2019-04-06T14:41:57.640Z,42.20
2019-04-06T14:44:41.276Z,40.84
2019-04-06T14:47:30.870Z,41.57
2019-04-06T14:50:20.282Z,42.30
2019-04-06T14:53:09.756Z,41.05
2019-04-06T14:55:59.176Z,42.85
2019-04-06T14:58:49.196Z,44.74
2019-04-06T15:01:45.258Z,45.25
2019-04-06T15:04:20.661Z,44.70
2019-04-06T15:07:08.584Z,44.80
2019-04-06T15:09:37.940Z,45.35
2019-04-06T15:12:27.805Z,45.57
2019-04-06T15:15:17.354Z,46.27
2019-04-06T15:17:54.898Z,46.93
2019-04-06T15:20:33.032Z,47.21
2019-04-06T15:23:22.573Z,47.50
2019-04-06T15:26:06.435Z,47.95
2019-04-06T15:28:56.222Z,47.75
2019-04-06T15:31:35.099Z,47.24
2019-04-06T15:34:18.484Z,49.18
2019-04-06T15:36:59.390Z,48.27
2019-04-06T15:39:49.105Z,48.33
2019-04-06T15:42:38.681Z,48.43
2019-04-06T15:45:28.253Z,47.80
2019-04-06T15:48:17.760Z,48.19
2019-04-06T15:51:07.431Z,48.43
2019-04-06T15:53:51.052Z,48.19
2019-04-06T15:56:38.315Z,49.06
2019-04-06T15:59:27.842Z,50.11
2019-04-06T16:02:17.347Z,49.61
2019-04-06T16:05:05.168Z,49.31
2019-04-06T16:07:54.716Z,50.07
2019-04-06T16:10:34.639Z,50.25
2019-04-06T16:13:24.007Z,50.44
2019-04-06T16:16:30.089Z,50.20
2019-04-06T16:19:19.852Z,50.08
2019-04-06T16:22:09.460Z,50.09
2019-04-06T16:24:46.160Z,49.70
2019-04-06T16:27:23.287Z,50.33
2019-04-06T16:30:13.096Z,49.95
2019-04-06T16:33:02.836Z,49.77
2019-04-06T16:35:52.253Z,50.01
2019-04-06T16:38:31.527Z,50.06
2019-04-06T16:41:21.333Z,50.32
2019-04-06T16:44:10.875Z,50.47
2019-04-06T16:46:51.545Z,49.53
2019-04-06T16:49:41.160Z,49.39
2019-04-06T16:52:30.439Z,49.43
2019-04-06T16:55:14.179Z,49.49
2019-04-06T16:58:01.074Z,49.26
2019-04-06T17:00:39.829Z,49.70
2019-04-06T17:03:16.782Z,49.99
2019-04-06T17:06:06.520Z,49.73
2019-04-06T17:08:56.584Z,50.32
2019-04-06T17:11:49.757Z,50.39
2019-04-06T17:14:39.397Z,50.43
2019-04-06T17:17:29.461Z,50.80
2019-04-06T17:20:19.061Z,50.92
2019-04-06T17:23:09.675Z,51.30
2019-04-06T17:25:54.634Z,51.86
2019-04-06T17:28:47.971Z,52.13
2019-04-06T17:31:37.768Z,52.46
2019-04-06T17:34:31.422Z,52.74
2019-04-06T17:37:16.997Z,53.28
2019-04-06T17:40:07.719Z,53.51
2019-04-06T17:42:45.171Z,54.05
2019-04-06T17:45:26.607Z,54.38
2019-04-06T17:48:08.346Z,56.01
2019-04-06T17:50:57.963Z,58.47
2019-04-06T17:53:47.335Z,59.97
2019-04-06T17:56:36.813Z,61.11
2019-04-06T17:59:27.536Z,63.86
2019-04-06T18:02:17.837Z,63.13
2019-04-06T18:05:07.483Z,63.05
2019-04-06T18:07:57.869Z,62.72
2019-04-06T18:10:40.680Z,62.81
2019-04-06T18:13:30.242Z,64.01
2019-04-06T18:16:02.112Z,64.60
2019-04-06T18:18:34.031Z,64.63
2019-04-06T18:21:05.049Z,64.94
2019-04-06T18:23:36.866Z,65.28
2019-04-06T18:26:07.946Z,65.72
2019-04-06T18:28:38.887Z,65.88
2019-04-06T18:31:20.470Z,65.99
2019-04-06T18:33:58.016Z,65.39
2019-04-06T18:36:40.478Z,64.91
2019-04-06T18:39:16.371Z,65.81
2019-04-06T18:41:47.075Z,66.10
2019-04-06T18:44:21.878Z,66.46
2019-04-06T18:46:54.079Z,66.63
2019-04-06T18:49:27.597Z,67.03
2019-04-06T18:52:01.945Z,66.88
2019-04-06T18:54:32.792Z,67.25
2019-04-06T18:57:06.492Z,66.98
2019-04-06T18:59:38.076Z,67.12
2019-04-06T19:02:09.750Z,67.25
2019-04-06T19:04:40.670Z,67.42
2019-04-06T19:07:13.520Z,67.57
2019-04-06T19:09:55.892Z,67.58
2019-04-06T19:12:32.742Z,67.55
2019-04-06T19:15:08.216Z,68.16
2019-04-06T19:17:40.369Z,68.28
2019-04-06T19:20:14.720Z,68.18
2019-04-06T19:22:47.962Z,68.29
2019-04-06T19:25:22.405Z,68.92
2019-04-06T19:27:55.176Z,68.49
2019-04-06T19:30:27.514Z,69.08
2019-04-06T19:33:05.689Z,69.26
2019-04-06T19:35:40.370Z,68.79
2019-04-06T19:38:13.317Z,69.64
2019-04-06T19:40:49.737Z,69.82
2019-04-06T19:43:21.994Z,69.64
2019-04-06T19:45:52.954Z,69.86
2019-04-06T19:48:23.787Z,70.76
2019-04-06T19:50:59.006Z,70.84
2019-04-06T19:53:30.060Z,71.07
2019-04-06T19:56:05.613Z,70.77
2019-04-06T19:58:38.395Z,70.57
2019-04-06T20:01:09.242Z,70.65
2019-04-06T20:03:40.068Z,71.83
2019-04-06T20:06:15.560Z,71.47
2019-04-06T20:08:48.257Z,71.88
2019-04-06T20:11:19.308Z,73.58
2019-04-06T20:13:51.355Z,74.52
2019-04-06T20:16:22.832Z,74.52
2019-04-06T20:18:57.130Z,74.16
2019-04-06T20:21:27.968Z,75.02
2019-04-06T20:24:00.544Z,74.30
2019-04-06T20:26:32.490Z,72.99
2019-04-06T20:29:06.441Z,72.75
2019-04-06T20:31:38.482Z,72.84
2019-04-06T20:34:10.769Z,72.02
2019-04-06T20:36:41.959Z,71.33
2019-04-06T20:39:13.168Z,70.97
2019-04-06T20:41:43.986Z,71.19
2019-04-06T20:44:14.595Z,70.96
2019-04-06T20:46:47.282Z,70.65
2019-04-06T20:49:18.486Z,70.71
2019-04-06T20:51:49.623Z,71.13
2019-04-06T20:54:20.808Z,71.01
2019-04-06T20:56:56.397Z,71.31
2019-04-06T20:59:24.124Z,71.67
2019-04-06T21:01:54.572Z,71.62
2019-04-06T21:04:25.168Z,71.44
2019-04-06T21:06:55.922Z,71.31
2019-04-06T21:09:27.069Z,70.76
2019-04-06T21:11:58.089Z,70.64
2019-04-06T21:14:29.499Z,70.52
2019-04-06T21:17:00.674Z,70.61
2019-04-06T21:19:31.474Z,71.64
2019-04-06T21:22:03.025Z,71.94
2019-04-06T21:24:33.791Z,72.20
2019-04-06T21:27:05.277Z,72.93
2019-04-06T21:29:36.446Z,73.61
2019-04-06T21:32:07.391Z,73.31
2019-04-06T21:34:38.300Z,73.21
2019-04-06T21:37:08.865Z,73.08
2019-04-06T21:39:39.405Z,73.42
2019-04-06T21:42:10.638Z,73.81
2019-04-06T21:44:41.466Z,74.32
2019-04-06T21:47:12.168Z,74.20
2019-04-06T21:49:43.563Z,74.59
2019-04-06T21:52:14.445Z,74.88
2019-04-06T21:54:45.499Z,74.90
2019-04-06T21:57:16.330Z,75.10
2019-04-06T21:59:47.355Z,75.25
2019-04-06T22:02:18.121Z,76.32
2019-04-06T22:04:49.672Z,76.61
2019-04-06T22:07:20.323Z,77.55
2019-04-06T22:09:51.364Z,77.75
2019-04-06T22:12:22.663Z,78.21
2019-04-06T22:14:53.229Z,78.39
2019-04-06T22:17:24.418Z,78.62
2019-04-06T22:19:55.139Z,78.40
2019-04-06T22:22:25.934Z,78.54
2019-04-06T22:24:56.485Z,78.65
2019-04-06T22:27:27.789Z,78.72
2019-04-06T22:29:59.110Z,78.58
2019-04-06T22:32:30.126Z,78.58
2019-04-06T22:35:01.105Z,78.32
2019-04-06T22:37:32.677Z,78.21
2019-04-06T22:40:03.787Z,78.00
2019-04-06T22:42:34.635Z,77.79
2019-04-06T22:45:08.465Z,77.86
2019-04-06T22:47:39.855Z,78.05
2019-04-06T22:50:11.877Z,78.02
2019-04-06T22:52:43.490Z,78.11
2019-04-06T22:55:14.500Z,77.92
2019-04-06T22:57:45.502Z,77.98
2019-04-06T23:00:27.351Z,77.84
2019-04-06T23:03:06.971Z,77.66
2019-04-06T23:05:42.587Z,77.74
2019-04-06T23:08:13.425Z,77.80
2019-04-06T23:10:44.144Z,77.52
2019-04-06T23:13:15.027Z,77.34
2019-04-06T23:15:47.816Z,77.60
2019-04-06T23:18:18.252Z,77.68
2019-04-06T23:20:49.551Z,77.83
2019-04-06T23:23:20.866Z,78.03
2019-04-06T23:25:51.863Z,78.41
2019-04-06T23:28:22.646Z,78.69
2019-04-06T23:30:53.557Z,78.75
2019-04-06T23:33:24.430Z,78.42
2019-04-06T23:35:55.038Z,77.94
2019-04-06T23:38:26.190Z,77.89
2019-04-06T23:40:56.876Z,77.56
2019-04-06T23:43:27.697Z,77.29
2019-04-06T23:45:58.386Z,77.34
2019-04-06T23:48:28.932Z,77.13
2019-04-06T23:50:59.844Z,77.00
2019-04-06T23:53:30.535Z,76.89
2019-04-06T23:56:02.188Z,77.03
2019-04-06T23:58:33.273Z,77.02
